This is the latest recevied weather packets stored in our database for station/object WX7FGZ-3. If no packets are shown the sender has not sent any weather packets the latest 10 day(s).
| Time | Temp. | Humidity | Pressure | Rain* | Wind** | Luminosity | Snow |
|---|---|---|---|---|---|---|---|
| 1778017263 | 12.78° C | 41% | 1003.8 hPa | 0 mm | - | - | - |
| 1778016962 | 13.33° C | 39% | 1003.9 hPa | 0 mm | - | - | - |
| 1778016662 | 13.33° C | 40% | 1003.8 hPa | 0 mm | - | - | - |
| 1778016362 | 13.89° C | 41% | 1003.8 hPa | 0 mm | - | - | - |
| 1778015762 | 13.89° C | 40% | 1003.6 hPa | 0 mm | - | - | - |
| 1778015461 | 13.33° C | 41% | 1003.9 hPa | 0 mm | - | - | - |
| 1778015161 | 12.78° C | 43% | 1003.9 hPa | 0 mm | - | - | - |
| 1778014861 | 12.22° C | 44% | 1004.1 hPa | 0 mm | - | - | - |
| 1778014560 | 11.11° C | 49% | 1004.1 hPa | 0 mm | - | - | - |
| 1778013960 | 11.11° C | 52% | 1004.8 hPa | 0 mm | - | - | - |
| 1778013660 | 11.11° C | 50% | 1004.8 hPa | 0 mm | - | - | - |
| 1778012758 | 11.67° C | 50% | 1004.6 hPa | 0 mm | - | - | - |
| 1778012460 | 11.11° C | 50% | 1004.6 hPa | 0 mm | - | - | - |
| 1778012158 | 11.67° C | 50% | 1004.6 hPa | 0 mm | - | - | - |
| 1778011557 | 11.67° C | 50% | 1004.4 hPa | 0 mm | - | - | - |
| 1778011257 | 11.67° C | 51% | 1004.3 hPa | 0 mm | - | - | - |
| 1778010957 | 11.11° C | 53% | 1004.3 hPa | 0 mm | - | - | - |
| 1778010657 | 11.11° C | 52% | 1004.2 hPa | 0 mm | - | - | - |
| 1778010356 | 11.67° C | 51% | 1004.3 hPa | 0 mm | - | - | - |
| 1778010056 | 11.67° C | 49% | 1004.3 hPa | 0 mm | - | - | - |
| 1778009455 | 12.22° C | 50% | 1004.2 hPa | 0 mm | - | - | - |
| 1778009155 | 12.22° C | 51% | 1004.7 hPa | 0 mm | - | - | - |
| 1778008857 | 12.22° C | 52% | 1004.9 hPa | 0 mm | - | - | - |
| 1778008555 | 11.67° C | 53% | 1005.1 hPa | 0 mm | - | - | - |
| 1778008254 | 11.11° C | 53% | 1005.2 hPa | 0 mm | - | - | - |
* Rain latest hour (hover to see other rain measurements)
** Current wind speed in m/s (hover to see current wind gust speed)